sensor_id;sensor_type;location;lat;lon;timestamp;temperature;humidity
7920;DHT22;18778;47.610;9.776;2023-10-13T00:00:30;16.90;99.90
7920;DHT22;18778;47.610;9.776;2023-10-13T00:05:28;16.60;99.90
7920;DHT22;18778;47.610;9.776;2023-10-13T00:07:57;16.40;99.90
7920;DHT22;18778;47.610;9.776;2023-10-13T00:10:32;16.40;99.90
7920;DHT22;18778;47.610;9.776;2023-10-13T00:13:01;16.00;99.90
7920;DHT22;18778;47.610;9.776;2023-10-13T00:15:41;16.00;99.90
7920;DHT22;18778;47.610;9.776;2023-10-13T00:18:19;15.90;99.90
7920;DHT22;18778;47.610;9.776;2023-10-13T00:20:45;15.70;99.90
7920;DHT22;18778;47.610;9.776;2023-10-13T00:23:14;15.70;99.90
7920;DHT22;18778;47.610;9.776;2023-10-13T00:25:41;15.40;99.90
7920;DHT22;18778;47.610;9.776;2023-10-13T00:28:16;15.70;99.90
7920;DHT22;18778;47.610;9.776;2023-10-13T00:33:16;15.20;99.90
7920;DHT22;18778;47.610;9.776;2023-10-13T00:35:45;15.00;99.90
7920;DHT22;18778;47.610;9.776;2023-10-13T00:38:12;15.00;99.90
7920;DHT22;18778;47.610;9.776;2023-10-13T00:40:39;15.00;99.90
7920;DHT22;18778;47.610;9.776;2023-10-13T00:43:06;14.90;99.90
7920;DHT22;18778;47.610;9.776;2023-10-13T00:48:13;14.90;99.90
7920;DHT22;18778;47.610;9.776;2023-10-13T00:50:41;14.90;99.90
7920;DHT22;18778;47.610;9.776;2023-10-13T00:53:08;14.80;99.90
7920;DHT22;18778;47.610;9.776;2023-10-13T00:55:34;14.80;99.90
7920;DHT22;18778;47.610;9.776;2023-10-13T01:00:30;14.80;99.90
7920;DHT22;18778;47.610;9.776;2023-10-13T01:02:56;14.70;99.90
7920;DHT22;18778;47.610;9.776;2023-10-13T01:05:25;14.80;99.90
7920;DHT22;18778;47.610;9.776;2023-10-13T01:10:21;14.70;99.90
7920;DHT22;18778;47.610;9.776;2023-10-13T01:12:51;14.90;99.90
7920;DHT22;18778;47.610;9.776;2023-10-13T01:15:18;14.70;99.90
7920;DHT22;18778;47.610;9.776;2023-10-13T01:17:47;14.70;99.90
7920;DHT22;18778;47.610;9.776;2023-10-13T01:20:16;14.70;99.90
7920;DHT22;18778;47.610;9.776;2023-10-13T01:22:51;14.70;99.90
7920;DHT22;18778;47.610;9.776;2023-10-13T01:25:22;14.80;99.90
7920;DHT22;18778;47.610;9.776;2023-10-13T01:27:52;14.80;99.90
7920;DHT22;18778;47.610;9.776;2023-10-13T01:30:18;14.90;99.90
7920;DHT22;18778;47.610;9.776;2023-10-13T01:32:49;15.10;99.90
7920;DHT22;18778;47.610;9.776;2023-10-13T01:40:11;15.20;99.90
7920;DHT22;18778;47.610;9.776;2023-10-13T01:42:39;15.20;99.90
7920;DHT22;18778;47.610;9.776;2023-10-13T01:45:05;15.30;99.90
7920;DHT22;18778;47.610;9.776;2023-10-13T01:47:32;15.30;99.90
7920;DHT22;18778;47.610;9.776;2023-10-13T01:49:58;15.30;99.90
7920;DHT22;18778;47.610;9.776;2023-10-13T01:52:32;15.30;99.90
7920;DHT22;18778;47.610;9.776;2023-10-13T01:57:26;15.30;99.90
7920;DHT22;18778;47.610;9.776;2023-10-13T01:59:53;15.30;99.90
7920;DHT22;18778;47.610;9.776;2023-10-13T02:02:21;15.30;99.90
7920;DHT22;18778;47.610;9.776;2023-10-13T02:04:56;15.40;99.90
7920;DHT22;18778;47.610;9.776;2023-10-13T02:07:23;15.50;99.90
7920;DHT22;18778;47.610;9.776;2023-10-13T02:09:55;15.40;99.90
7920;DHT22;18778;47.610;9.776;2023-10-13T02:12:21;15.50;99.90
7920;DHT22;18778;47.610;9.776;2023-10-13T02:17:20;15.70;99.90
7920;DHT22;18778;47.610;9.776;2023-10-13T02:19:49;15.70;99.90
7920;DHT22;18778;47.610;9.776;2023-10-13T02:22:15;15.80;99.90
7920;DHT22;18778;47.610;9.776;2023-10-13T02:29:49;16.10;99.90
7920;DHT22;18778;47.610;9.776;2023-10-13T02:32:15;16.10;99.90
7920;DHT22;18778;47.610;9.776;2023-10-13T02:34:47;16.00;99.90
7920;DHT22;18778;47.610;9.776;2023-10-13T02:37:13;16.00;99.90
7920;DHT22;18778;47.610;9.776;2023-10-13T02:39:42;15.90;99.90
7920;DHT22;18778;47.610;9.776;2023-10-13T02:42:08;15.80;99.90
7920;DHT22;18778;47.610;9.776;2023-10-13T02:44:35;16.90;99.90
7920;DHT22;18778;47.610;9.776;2023-10-13T02:47:03;15.40;99.90
7920;DHT22;18778;47.610;9.776;2023-10-13T02:49:39;15.40;99.90
7920;DHT22;18778;47.610;9.776;2023-10-13T02:52:09;15.20;99.90
7920;DHT22;18778;47.610;9.776;2023-10-13T02:54:36;15.20;99.90
7920;DHT22;18778;47.610;9.776;2023-10-13T02:59:43;15.30;99.90
7920;DHT22;18778;47.610;9.776;2023-10-13T03:02:13;15.30;99.90
7920;DHT22;18778;47.610;9.776;2023-10-13T03:04:55;15.30;99.90
7920;DHT22;18778;47.610;9.776;2023-10-13T03:07:27;15.30;99.90
7920;DHT22;18778;47.610;9.776;2023-10-13T03:09:57;16.10;99.90
7920;DHT22;18778;47.610;9.776;2023-10-13T03:12:25;15.20;99.90
7920;DHT22;18778;47.610;9.776;2023-10-13T03:14:51;15.10;99.90
7920;DHT22;18778;47.610;9.776;2023-10-13T03:17:21;15.10;99.90
7920;DHT22;18778;47.610;9.776;2023-10-13T03:19:59;15.00;99.90
7920;DHT22;18778;47.610;9.776;2023-10-13T03:22:25;14.90;99.90
7920;DHT22;18778;47.610;9.776;2023-10-13T03:25:00;14.90;99.90
7920;DHT22;18778;47.610;9.776;2023-10-13T03:27:34;14.90;99.90
7920;DHT22;18778;47.610;9.776;2023-10-13T03:30:16;15.00;99.90
7920;DHT22;18778;47.610;9.776;2023-10-13T03:32:42;14.90;99.90
7920;DHT22;18778;47.610;9.776;2023-10-13T03:35:20;14.90;99.90
7920;DHT22;18778;47.610;9.776;2023-10-13T03:37:56;14.90;99.90
7920;DHT22;18778;47.610;9.776;2023-10-13T03:40:22;14.90;99.90
7920;DHT22;18778;47.610;9.776;2023-10-13T03:42:52;14.90;99.90
7920;DHT22;18778;47.610;9.776;2023-10-13T03:45:35;14.90;99.90
7920;DHT22;18778;47.610;9.776;2023-10-13T03:48:09;14.90;99.90
7920;DHT22;18778;47.610;9.776;2023-10-13T03:50:37;14.80;99.90
7920;DHT22;18778;47.610;9.776;2023-10-13T03:53:12;14.90;99.90
7920;DHT22;18778;47.610;9.776;2023-10-13T03:55:39;14.90;99.90
7920;DHT22;18778;47.610;9.776;2023-10-13T03:58:05;14.90;99.90
7920;DHT22;18778;47.610;9.776;2023-10-13T04:00:32;14.90;99.90
7920;DHT22;18778;47.610;9.776;2023-10-13T04:02:58;14.90;99.90
7920;DHT22;18778;47.610;9.776;2023-10-13T04:05:41;14.90;99.90
7920;DHT22;18778;47.610;9.776;2023-10-13T04:08:27;14.70;99.90
7920;DHT22;18778;47.610;9.776;2023-10-13T04:10:54;15.30;99.90
7920;DHT22;18778;47.610;9.776;2023-10-13T04:13:20;14.40;99.90
7920;DHT22;18778;47.610;9.776;2023-10-13T04:16:06;14.10;99.90
7920;DHT22;18778;47.610;9.776;2023-10-13T04:18:48;13.90;99.90
7920;DHT22;18778;47.610;9.776;2023-10-13T04:21:23;13.80;99.90
7920;DHT22;18778;47.610;9.776;2023-10-13T04:24:05;13.80;99.90
7920;DHT22;18778;47.610;9.776;2023-10-13T04:26:34;13.80;99.90
7920;DHT22;18778;47.610;9.776;2023-10-13T04:29:10;13.80;99.90
7920;DHT22;18778;47.610;9.776;2023-10-13T04:31:56;13.90;99.90
7920;DHT22;18778;47.610;9.776;2023-10-13T04:34:25;13.90;99.90
7920;DHT22;18778;47.610;9.776;2023-10-13T04:36:54;14.00;99.90
7920;DHT22;18778;47.610;9.776;2023-10-13T04:42:04;14.10;99.90
7920;DHT22;18778;47.610;9.776;2023-10-13T04:45:01;14.10;99.90
7920;DHT22;18778;47.610;9.776;2023-10-13T04:47:41;13.80;99.90
7920;DHT22;18778;47.610;9.776;2023-10-13T04:50:13;15.60;99.90
7920;DHT22;18778;47.610;9.776;2023-10-13T05:03:48;12.90;99.90
7920;DHT22;18778;47.610;9.776;2023-10-13T05:06:33;12.70;99.90
7920;DHT22;18778;47.610;9.776;2023-10-13T05:09:14;12.80;99.90
7920;DHT22;18778;47.610;9.776;2023-10-13T05:11:58;12.40;99.90
7920;DHT22;18778;47.610;9.776;2023-10-13T05:14:42;14.20;99.90
7920;DHT22;18778;47.610;9.776;2023-10-13T05:20:28;11.90;99.90
7920;DHT22;18778;47.610;9.776;2023-10-13T05:23:12;11.70;99.90
7920;DHT22;18778;47.610;9.776;2023-10-13T05:25:59;12.20;99.90
7920;DHT22;18778;47.610;9.776;2023-10-13T05:28:48;13.80;99.90
7920;DHT22;18778;47.610;9.776;2023-10-13T05:31:32;11.70;99.90
7920;DHT22;18778;47.610;9.776;2023-10-13T05:34:16;11.80;99.90
7920;DHT22;18778;47.610;9.776;2023-10-13T05:37:01;11.70;99.90
7920;DHT22;18778;47.610;9.776;2023-10-13T05:39:44;11.80;99.90
7920;DHT22;18778;47.610;9.776;2023-10-13T05:45:13;11.70;99.90
7920;DHT22;18778;47.610;9.776;2023-10-13T05:47:39;11.80;99.90
7920;DHT22;18778;47.610;9.776;2023-10-13T05:50:07;11.90;99.90
7920;DHT22;18778;47.610;9.776;2023-10-13T05:52:46;12.00;99.90
7920;DHT22;18778;47.610;9.776;2023-10-13T05:55:32;11.90;99.90
7920;DHT22;18778;47.610;9.776;2023-10-13T05:58:16;12.00;99.90
7920;DHT22;18778;47.610;9.776;2023-10-13T06:01:01;14.40;99.90
7920;DHT22;18778;47.610;9.776;2023-10-13T06:06:29;12.30;99.90
7920;DHT22;18778;47.610;9.776;2023-10-13T06:09:13;12.40;99.90
7920;DHT22;18778;47.610;9.776;2023-10-13T06:14:45;12.50;99.90
7920;DHT22;18778;47.610;9.776;2023-10-13T06:17:30;12.50;99.90
7920;DHT22;18778;47.610;9.776;2023-10-13T06:20:14;15.70;99.90
7920;DHT22;18778;47.610;9.776;2023-10-13T06:22:58;12.80;99.90
7920;DHT22;18778;47.610;9.776;2023-10-13T06:25:42;13.00;99.90
7920;DHT22;18778;47.610;9.776;2023-10-13T06:28:26;14.40;99.90
7920;DHT22;18778;47.610;9.776;2023-10-13T06:31:08;13.20;99.90
7920;DHT22;18778;47.610;9.776;2023-10-13T06:33:37;13.30;99.90
7920;DHT22;18778;47.610;9.776;2023-10-13T06:36:09;13.20;99.90
7920;DHT22;18778;47.610;9.776;2023-10-13T06:38:35;13.20;99.90
7920;DHT22;18778;47.610;9.776;2023-10-13T06:41:05;13.20;99.90
7920;DHT22;18778;47.610;9.776;2023-10-13T06:43:37;13.20;99.90
7920;DHT22;18778;47.610;9.776;2023-10-13T06:48:40;13.30;99.90
7920;DHT22;18778;47.610;9.776;2023-10-13T06:51:06;13.40;99.90
7920;DHT22;18778;47.610;9.776;2023-10-13T06:53:44;13.40;99.90
7920;DHT22;18778;47.610;9.776;2023-10-13T06:56:15;14.10;99.90
7920;DHT22;18778;47.610;9.776;2023-10-13T07:01:28;13.80;99.90
7920;DHT22;18778;47.610;9.776;2023-10-13T07:03:54;14.00;99.90
7920;DHT22;18778;47.610;9.776;2023-10-13T07:06:20;14.00;99.90
7920;DHT22;18778;47.610;9.776;2023-10-13T07:08:49;14.30;99.90
7920;DHT22;18778;47.610;9.776;2023-10-13T07:11:29;14.30;99.90
7920;DHT22;18778;47.610;9.776;2023-10-13T07:14:07;14.40;99.90
7920;DHT22;18778;47.610;9.776;2023-10-13T07:16:43;14.70;99.90
7920;DHT22;18778;47.610;9.776;2023-10-13T07:19:14;15.60;99.90
7920;DHT22;18778;47.610;9.776;2023-10-13T07:21:44;14.80;99.90
7920;DHT22;18778;47.610;9.776;2023-10-13T07:24:12;15.00;99.90
7920;DHT22;18778;47.610;9.776;2023-10-13T07:26:38;15.10;99.90
7920;DHT22;18778;47.610;9.776;2023-10-13T07:29:09;16.20;99.90
7920;DHT22;18778;47.610;9.776;2023-10-13T07:34:03;15.70;99.90
7920;DHT22;18778;47.610;9.776;2023-10-13T07:39:08;16.10;99.90
7920;DHT22;18778;47.610;9.776;2023-10-13T07:41:54;16.30;99.90
7920;DHT22;18778;47.610;9.776;2023-10-13T07:44:23;16.40;99.90
7920;DHT22;18778;47.610;9.776;2023-10-13T07:46:57;18.50;99.90
7920;DHT22;18778;47.610;9.776;2023-10-13T07:49:32;17.00;99.90
7920;DHT22;18778;47.610;9.776;2023-10-13T07:52:03;17.00;99.90
7920;DHT22;18778;47.610;9.776;2023-10-13T07:54:50;17.20;99.90
7920;DHT22;18778;47.610;9.776;2023-10-13T07:57:29;19.30;99.90
7920;DHT22;18778;47.610;9.776;2023-10-13T07:59:58;19.00;99.90
7920;DHT22;18778;47.610;9.776;2023-10-13T08:02:59;18.20;99.90
7920;DHT22;18778;47.610;9.776;2023-10-13T08:05:43;18.30;99.90
7920;DHT22;18778;47.610;9.776;2023-10-13T08:08:24;18.60;99.90
7920;DHT22;18778;47.610;9.776;2023-10-13T08:11:10;18.80;99.90
7920;DHT22;18778;47.610;9.776;2023-10-13T08:13:56;19.10;99.90
7920;DHT22;18778;47.610;9.776;2023-10-13T08:18:56;19.30;98.50
7920;DHT22;18778;47.610;9.776;2023-10-13T08:21:21;19.50;99.40
7920;DHT22;18778;47.610;9.776;2023-10-13T08:23:50;19.60;98.80
7920;DHT22;18778;47.610;9.776;2023-10-13T08:26:19;19.70;98.80
7920;DHT22;18778;47.610;9.776;2023-10-13T08:29:04;19.80;98.10
7920;DHT22;18778;47.610;9.776;2023-10-13T08:31:50;20.00;97.30
7920;DHT22;18778;47.610;9.776;2023-10-13T08:34:34;19.80;97.20
7920;DHT22;18778;47.610;9.776;2023-10-13T08:37:12;20.10;99.10
7920;DHT22;18778;47.610;9.776;2023-10-13T08:39:59;20.60;96.90
7920;DHT22;18778;47.610;9.776;2023-10-13T08:42:31;20.70;96.70
7920;DHT22;18778;47.610;9.776;2023-10-13T08:45:16;20.20;96.20
7920;DHT22;18778;47.610;9.776;2023-10-13T08:48:00;20.20;97.10
7920;DHT22;18778;47.610;9.776;2023-10-13T08:50:45;20.30;97.10
7920;DHT22;18778;47.610;9.776;2023-10-13T08:53:30;20.40;97.30
7920;DHT22;18778;47.610;9.776;2023-10-13T08:56:07;20.60;95.40
7920;DHT22;18778;47.610;9.776;2023-10-13T08:58:51;20.60;95.40
7920;DHT22;18778;47.610;9.776;2023-10-13T09:01:23;20.50;95.40
7920;DHT22;18778;47.610;9.776;2023-10-13T09:04:12;20.70;96.80
7920;DHT22;18778;47.610;9.776;2023-10-13T09:06:54;21.40;97.70
7920;DHT22;18778;47.610;9.776;2023-10-13T09:12:19;20.80;95.60
7920;DHT22;18778;47.610;9.776;2023-10-13T09:14:56;21.10;97.70
7920;DHT22;18778;47.610;9.776;2023-10-13T09:20:06;21.10;96.20
7920;DHT22;18778;47.610;9.776;2023-10-13T09:22:51;21.30;94.00
7920;DHT22;18778;47.610;9.776;2023-10-13T09:25:38;21.50;93.40
7920;DHT22;18778;47.610;9.776;2023-10-13T09:28:11;21.70;93.80
7920;DHT22;18778;47.610;9.776;2023-10-13T09:30:51;21.50;94.10
7920;DHT22;18778;47.610;9.776;2023-10-13T09:33:31;21.50;94.60
7920;DHT22;18778;47.610;9.776;2023-10-13T09:36:03;22.00;95.70
7920;DHT22;18778;47.610;9.776;2023-10-13T09:38:33;21.90;95.70
7920;DHT22;18778;47.610;9.776;2023-10-13T09:40:59;22.20;95.70
7920;DHT22;18778;47.610;9.776;2023-10-13T09:43:35;22.30;96.30
7920;DHT22;18778;47.610;9.776;2023-10-13T09:46:03;22.40;93.30
7920;DHT22;18778;47.610;9.776;2023-10-13T09:48:47;22.50;96.30
7920;DHT22;18778;47.610;9.776;2023-10-13T09:51:16;22.70;93.10
7920;DHT22;18778;47.610;9.776;2023-10-13T09:56:56;22.70;93.00
7920;DHT22;18778;47.610;9.776;2023-10-13T09:59:37;22.80;94.60
7920;DHT22;18778;47.610;9.776;2023-10-13T10:04:36;23.10;94.20
7920;DHT22;18778;47.610;9.776;2023-10-13T10:07:27;23.20;95.70
7920;DHT22;18778;47.610;9.776;2023-10-13T10:09:59;23.30;92.80
7920;DHT22;18778;47.610;9.776;2023-10-13T10:17:59;23.90;94.00
7920;DHT22;18778;47.610;9.776;2023-10-13T10:20:36;24.10;93.90
7920;DHT22;18778;47.610;9.776;2023-10-13T10:23:08;24.20;92.40
7920;DHT22;18778;47.610;9.776;2023-10-13T10:25:48;24.10;91.30
7920;DHT22;18778;47.610;9.776;2023-10-13T10:28:17;24.30;93.00
7920;DHT22;18778;47.610;9.776;2023-10-13T10:30:43;24.50;91.50
7920;DHT22;18778;47.610;9.776;2023-10-13T10:33:10;24.60;90.40
7920;DHT22;18778;47.610;9.776;2023-10-13T10:35:42;24.70;90.30
7920;DHT22;18778;47.610;9.776;2023-10-13T10:38:17;24.80;91.00
7920;DHT22;18778;47.610;9.776;2023-10-13T10:40:55;24.90;89.10
7920;DHT22;18778;47.610;9.776;2023-10-13T10:46:25;25.00;90.40
7920;DHT22;18778;47.610;9.776;2023-10-13T10:48:53;25.00;90.70
7920;DHT22;18778;47.610;9.776;2023-10-13T10:51:28;25.00;88.60
7920;DHT22;18778;47.610;9.776;2023-10-13T10:53:57;25.10;90.60
7920;DHT22;18778;47.610;9.776;2023-10-13T10:56:25;25.40;89.80
7920;DHT22;18778;47.610;9.776;2023-10-13T10:59:00;25.70;90.90
7920;DHT22;18778;47.610;9.776;2023-10-13T11:01:27;26.10;90.40
7920;DHT22;18778;47.610;9.776;2023-10-13T11:04:08;26.80;88.50
7920;DHT22;18778;47.610;9.776;2023-10-13T11:06:35;26.80;87.50
7920;DHT22;18778;47.610;9.776;2023-10-13T11:09:06;27.10;87.50
7920;DHT22;18778;47.610;9.776;2023-10-13T11:14:20;27.60;83.80
7920;DHT22;18778;47.610;9.776;2023-10-13T11:16:49;27.40;83.60
7920;DHT22;18778;47.610;9.776;2023-10-13T11:19:19;27.80;86.90
7920;DHT22;18778;47.610;9.776;2023-10-13T11:21:52;26.10;81.60
7920;DHT22;18778;47.610;9.776;2023-10-13T11:24:19;28.40;85.90
7920;DHT22;18778;47.610;9.776;2023-10-13T11:26:47;28.40;86.00
7920;DHT22;18778;47.610;9.776;2023-10-13T11:29:31;28.50;86.50
7920;DHT22;18778;47.610;9.776;2023-10-13T11:31:56;28.60;84.60
7920;DHT22;18778;47.610;9.776;2023-10-13T11:34:25;28.60;84.10
7920;DHT22;18778;47.610;9.776;2023-10-13T11:37:01;28.60;81.70
7920;DHT22;18778;47.610;9.776;2023-10-13T11:39:46;28.50;82.60
7920;DHT22;18778;47.610;9.776;2023-10-13T11:42:12;28.60;81.20
7920;DHT22;18778;47.610;9.776;2023-10-13T11:44:38;28.30;80.50
7920;DHT22;18778;47.610;9.776;2023-10-13T11:47:09;28.50;82.20
7920;DHT22;18778;47.610;9.776;2023-10-13T11:50:00;28.60;81.00
7920;DHT22;18778;47.610;9.776;2023-10-13T11:52:26;28.60;78.20
7920;DHT22;18778;47.610;9.776;2023-10-13T11:54:54;28.70;81.50
7920;DHT22;18778;47.610;9.776;2023-10-13T11:57:20;28.70;81.40
7920;DHT22;18778;47.610;9.776;2023-10-13T11:59:46;28.60;80.40
7920;DHT22;18778;47.610;9.776;2023-10-13T12:02:19;28.40;79.60
7920;DHT22;18778;47.610;9.776;2023-10-13T12:04:51;28.30;79.80
7920;DHT22;18778;47.610;9.776;2023-10-13T12:07:21;28.20;81.50
7920;DHT22;18778;47.610;9.776;2023-10-13T12:09:53;28.20;82.20
7920;DHT22;18778;47.610;9.776;2023-10-13T12:12:26;28.00;80.20
7920;DHT22;18778;47.610;9.776;2023-10-13T12:14:52;28.00;82.80
7920;DHT22;18778;47.610;9.776;2023-10-13T12:17:22;28.00;79.20
7920;DHT22;18778;47.610;9.776;2023-10-13T12:19:59;28.00;79.50
7920;DHT22;18778;47.610;9.776;2023-10-13T12:22:25;28.00;80.90
7920;DHT22;18778;47.610;9.776;2023-10-13T12:24:57;28.00;82.90
7920;DHT22;18778;47.610;9.776;2023-10-13T12:27:22;28.10;83.50
7920;DHT22;18778;47.610;9.776;2023-10-13T12:30:00;28.00;81.10
7920;DHT22;18778;47.610;9.776;2023-10-13T12:32:33;28.00;81.50
7920;DHT22;18778;47.610;9.776;2023-10-13T12:37:45;28.30;81.50
7920;DHT22;18778;47.610;9.776;2023-10-13T12:40:16;28.40;79.60
7920;DHT22;18778;47.610;9.776;2023-10-13T12:43:00;28.70;80.60
7920;DHT22;18778;47.610;9.776;2023-10-13T12:45:46;29.00;80.20
7920;DHT22;18778;47.610;9.776;2023-10-13T12:48:32;29.40;79.30
7920;DHT22;18778;47.610;9.776;2023-10-13T12:51:16;29.90;76.60
7920;DHT22;18778;47.610;9.776;2023-10-13T12:53:47;30.40;77.70
7920;DHT22;18778;47.610;9.776;2023-10-13T12:56:14;30.80;74.40
7920;DHT22;18778;47.610;9.776;2023-10-13T12:58:40;31.10;74.30
7920;DHT22;18778;47.610;9.776;2023-10-13T13:01:05;31.10;72.70
7920;DHT22;18778;47.610;9.776;2023-10-13T13:03:34;30.90;72.60
7920;DHT22;18778;47.610;9.776;2023-10-13T13:06:00;31.10;74.10
7920;DHT22;18778;47.610;9.776;2023-10-13T13:08:33;31.50;73.50
7920;DHT22;18778;47.610;9.776;2023-10-13T13:11:01;31.80;71.70
7920;DHT22;18778;47.610;9.776;2023-10-13T13:13:27;31.50;71.10
7920;DHT22;18778;47.610;9.776;2023-10-13T13:15:52;31.50;71.70
7920;DHT22;18778;47.610;9.776;2023-10-13T13:18:18;31.50;72.30
7920;DHT22;18778;47.610;9.776;2023-10-13T13:20:45;31.50;72.00
7920;DHT22;18778;47.610;9.776;2023-10-13T13:23:19;31.60;71.30
7920;DHT22;18778;47.610;9.776;2023-10-13T13:25:45;31.20;71.70
7920;DHT22;18778;47.610;9.776;2023-10-13T13:28:11;31.20;72.40
7920;DHT22;18778;47.610;9.776;2023-10-13T13:30:38;31.10;72.10
7920;DHT22;18778;47.610;9.776;2023-10-13T13:35:38;30.50;73.70
7920;DHT22;18778;47.610;9.776;2023-10-13T13:38:04;30.30;72.30
7920;DHT22;18778;47.610;9.776;2023-10-13T13:40:42;30.10;73.60
7920;DHT22;18778;47.610;9.776;2023-10-13T13:43:13;30.00;75.00
7920;DHT22;18778;47.610;9.776;2023-10-13T13:45:59;30.20;73.10
7920;DHT22;18778;47.610;9.776;2023-10-13T13:48:28;30.40;73.40
7920;DHT22;18778;47.610;9.776;2023-10-13T13:50:54;30.60;71.50
7920;DHT22;18778;47.610;9.776;2023-10-13T13:53:31;30.60;71.90
7920;DHT22;18778;47.610;9.776;2023-10-13T13:56:03;30.20;70.70
7920;DHT22;18778;47.610;9.776;2023-10-13T13:58:30;29.80;73.40
7920;DHT22;18778;47.610;9.776;2023-10-13T14:01:02;29.60;73.30
7920;DHT22;18778;47.610;9.776;2023-10-13T14:03:48;29.60;74.20
7920;DHT22;18778;47.610;9.776;2023-10-13T14:06:24;29.60;74.00
7920;DHT22;18778;47.610;9.776;2023-10-13T14:08:54;29.30;74.60
7920;DHT22;18778;47.610;9.776;2023-10-13T14:11:32;29.40;75.40
7920;DHT22;18778;47.610;9.776;2023-10-13T14:14:05;29.50;78.10
7920;DHT22;18778;47.610;9.776;2023-10-13T14:16:46;29.40;76.70
7920;DHT22;18778;47.610;9.776;2023-10-13T14:19:15;29.30;73.50
7920;DHT22;18778;47.610;9.776;2023-10-13T14:21:56;29.20;77.00
7920;DHT22;18778;47.610;9.776;2023-10-13T14:24:22;29.00;72.00
7920;DHT22;18778;47.610;9.776;2023-10-13T14:26:57;29.00;69.40
7920;DHT22;18778;47.610;9.776;2023-10-13T14:29:36;29.00;74.20
7920;DHT22;18778;47.610;9.776;2023-10-13T14:32:14;29.00;67.00
7920;DHT22;18778;47.610;9.776;2023-10-13T14:34:41;29.00;66.80
7920;DHT22;18778;47.610;9.776;2023-10-13T14:37:07;28.80;70.00
7920;DHT22;18778;47.610;9.776;2023-10-13T14:39:34;28.70;71.00
7920;DHT22;18778;47.610;9.776;2023-10-13T14:42:02;28.50;72.60
7920;DHT22;18778;47.610;9.776;2023-10-13T14:44:31;28.30;73.20
7920;DHT22;18778;47.610;9.776;2023-10-13T14:46:57;28.20;74.50
7920;DHT22;18778;47.610;9.776;2023-10-13T14:49:23;28.00;77.00
7920;DHT22;18778;47.610;9.776;2023-10-13T14:51:48;27.80;75.50
7920;DHT22;18778;47.610;9.776;2023-10-13T14:54:15;27.70;76.40
7920;DHT22;18778;47.610;9.776;2023-10-13T14:56:41;27.50;76.00
7920;DHT22;18778;47.610;9.776;2023-10-13T14:59:09;27.20;73.00
7920;DHT22;18778;47.610;9.776;2023-10-13T15:01:42;27.00;73.40
7920;DHT22;18778;47.610;9.776;2023-10-13T15:04:08;26.90;76.10
7920;DHT22;18778;47.610;9.776;2023-10-13T15:06:33;26.70;81.60
7920;DHT22;18778;47.610;9.776;2023-10-13T15:09:00;26.60;75.00
7920;DHT22;18778;47.610;9.776;2023-10-13T15:11:26;26.40;76.10
7920;DHT22;18778;47.610;9.776;2023-10-13T15:13:53;25.80;75.30
7920;DHT22;18778;47.610;9.776;2023-10-13T15:16:20;25.60;75.10
7920;DHT22;18778;47.610;9.776;2023-10-13T15:18:48;25.70;76.60
7920;DHT22;18778;47.610;9.776;2023-10-13T15:21:24;25.60;78.50
7920;DHT22;18778;47.610;9.776;2023-10-13T15:23:56;25.70;83.20
7920;DHT22;18778;47.610;9.776;2023-10-13T15:34:13;25.50;86.00
7920;DHT22;18778;47.610;9.776;2023-10-13T15:36:42;25.40;84.90
7920;DHT22;18778;47.610;9.776;2023-10-13T15:39:09;25.40;85.70
7920;DHT22;18778;47.610;9.776;2023-10-13T15:41:36;25.30;87.30
7920;DHT22;18778;47.610;9.776;2023-10-13T15:44:03;25.00;85.20
7920;DHT22;18778;47.610;9.776;2023-10-13T15:46:31;24.90;87.50
7920;DHT22;18778;47.610;9.776;2023-10-13T15:51:25;24.40;90.00
7920;DHT22;18778;47.610;9.776;2023-10-13T15:53:50;24.00;92.00
7920;DHT22;18778;47.610;9.776;2023-10-13T15:56:16;23.80;91.80
7920;DHT22;18778;47.610;9.776;2023-10-13T15:58:49;23.70;92.20
7920;DHT22;18778;47.610;9.776;2023-10-13T16:01:43;23.50;90.40
7920;DHT22;18778;47.610;9.776;2023-10-13T16:04:12;23.00;91.90
7920;DHT22;18778;47.610;9.776;2023-10-13T16:06:40;22.80;92.30
7920;DHT22;18778;47.610;9.776;2023-10-13T16:09:06;22.80;92.60
7920;DHT22;18778;47.610;9.776;2023-10-13T16:11:40;22.50;93.80
7920;DHT22;18778;47.610;9.776;2023-10-13T16:14:07;22.20;95.50
7920;DHT22;18778;47.610;9.776;2023-10-13T16:19:02;21.70;95.20
7920;DHT22;18778;47.610;9.776;2023-10-13T16:21:32;21.50;96.80
7920;DHT22;18778;47.610;9.776;2023-10-13T16:23:59;21.20;97.10
7920;DHT22;18778;47.610;9.776;2023-10-13T16:26:25;21.10;97.90
7920;DHT22;18778;47.610;9.776;2023-10-13T16:28:51;20.90;98.20
7920;DHT22;18778;47.610;9.776;2023-10-13T16:33:47;20.50;99.80
7920;DHT22;18778;47.610;9.776;2023-10-13T16:36:13;20.10;99.90
7920;DHT22;18778;47.610;9.776;2023-10-13T16:43:35;19.60;99.90
7920;DHT22;18778;47.610;9.776;2023-10-13T16:46:14;19.50;99.90
7920;DHT22;18778;47.610;9.776;2023-10-13T16:51:07;19.10;99.90
7920;DHT22;18778;47.610;9.776;2023-10-13T16:53:47;18.70;99.90
7920;DHT22;18778;47.610;9.776;2023-10-13T16:56:18;18.70;99.90
7920;DHT22;18778;47.610;9.776;2023-10-13T16:58:44;18.50;99.90
7920;DHT22;18778;47.610;9.776;2023-10-13T17:01:14;18.30;99.90
7920;DHT22;18778;47.610;9.776;2023-10-13T17:03:41;18.30;99.90
7920;DHT22;18778;47.610;9.776;2023-10-13T17:06:08;18.20;99.90
7920;DHT22;18778;47.610;9.776;2023-10-13T17:08:34;18.00;99.90
7920;DHT22;18778;47.610;9.776;2023-10-13T17:11:13;17.90;99.90
7920;DHT22;18778;47.610;9.776;2023-10-13T17:13:41;17.80;99.90
7920;DHT22;18778;47.610;9.776;2023-10-13T17:16:18;17.70;99.90
7920;DHT22;18778;47.610;9.776;2023-10-13T17:18:45;17.60;99.90
7920;DHT22;18778;47.610;9.776;2023-10-13T17:21:19;17.60;99.90
7920;DHT22;18778;47.610;9.776;2023-10-13T17:26:16;17.30;99.90
7920;DHT22;18778;47.610;9.776;2023-10-13T17:28:42;17.30;99.90
7920;DHT22;18778;47.610;9.776;2023-10-13T17:31:08;17.20;99.90
7920;DHT22;18778;47.610;9.776;2023-10-13T17:33:35;17.10;99.90
7920;DHT22;18778;47.610;9.776;2023-10-13T17:36:08;17.00;99.90
7920;DHT22;18778;47.610;9.776;2023-10-13T17:38:35;16.90;99.90
7920;DHT22;18778;47.610;9.776;2023-10-13T17:41:01;16.80;99.90
7920;DHT22;18778;47.610;9.776;2023-10-13T17:48:18;16.20;99.90
7920;DHT22;18778;47.610;9.776;2023-10-13T17:55:39;15.80;99.90
7920;DHT22;18778;47.610;9.776;2023-10-13T17:58:05;15.60;99.90
7920;DHT22;18778;47.610;9.776;2023-10-13T18:00:34;15.60;99.90
7920;DHT22;18778;47.610;9.776;2023-10-13T18:12:53;15.30;99.90
7920;DHT22;18778;47.610;9.776;2023-10-13T18:22:44;15.20;99.90
7920;DHT22;18778;47.610;9.776;2023-10-13T18:25:10;15.10;99.90
7920;DHT22;18778;47.610;9.776;2023-10-13T18:27:40;14.90;99.90
7920;DHT22;18778;47.610;9.776;2023-10-13T18:30:11;15.40;99.90
7920;DHT22;18778;47.610;9.776;2023-10-13T18:32:43;14.80;99.90
7920;DHT22;18778;47.610;9.776;2023-10-13T18:35:11;14.80;99.90
7920;DHT22;18778;47.610;9.776;2023-10-13T18:37:38;14.70;99.90
7920;DHT22;18778;47.610;9.776;2023-10-13T18:40:04;15.00;99.90
7920;DHT22;18778;47.610;9.776;2023-10-13T18:42:35;14.70;99.90
7920;DHT22;18778;47.610;9.776;2023-10-13T18:45:11;19.20;99.90